PRIVATE WETTERSTATION BILLIGHEIM-ALLFELD                       ZURCK
Wetterdaten: Sonntag, 03.04.2022
Datum Zeit Temp. A. Temp. A. min Temp. A. max Feuchte A. Luftdruck Regen Wind Richtung Richtung Sonnenschein ET Solar Taupunkt Windchill Windben Empfang
03.04.2022 00:00 -0,3 C -0,3 C -0,2 C 92 % 1017,3 hPa 0,0 l/m 0,0 km/h (0 Bft) N-NW 340 0 min 0,000 mm 0 W/m -1,4 C -0,3 C 0,0 km/h (0 Bft) 100 %
03.04.2022 00:10 -0,4 C -0,4 C -0,3 C 92 % 1017,3 hPa 0,0 l/m 0,0 km/h (0 Bft) N-NW 340 0 min 0,000 mm 0 W/m -1,5 C -0,4 C 0,0 km/h (0 Bft) 100 %
03.04.2022 00:20 -0,5 C -0,5 C -0,4 C 92 % 1017,4 hPa 0,0 l/m 0,0 km/h (0 Bft) N-NW 340 0 min 0,000 mm 0 W/m -1,6 C -0,5 C 0,0 km/h (0 Bft) 100 %
03.04.2022 00:30 -0,6 C -0,6 C -0,5 C 92 % 1017,5 hPa 0,0 l/m 0,0 km/h (0 Bft) N-NW 340 0 min 0,000 mm 0 W/m -1,7 C -0,6 C 0,0 km/h (0 Bft) 100 %
03.04.2022 00:40 -0,7 C -0,7 C -0,6 C 92 % 1017,6 hPa 0,0 l/m 0,0 km/h (0 Bft) N-NW 340 0 min 0,000 mm 0 W/m -1,8 C -0,7 C 0,0 km/h (0 Bft) 100 %
03.04.2022 00:50 -0,7 C -0,7 C -0,6 C 92 % 1017,7 hPa 0,0 l/m 0,0 km/h (0 Bft) N-NW 340 0 min 0,000 mm 0 W/m -1,8 C -0,7 C 1,6 km/h (1 Bft) 100 %
03.04.2022 01:00 -0,7 C -0,7 C -0,7 C 92 % 1017,7 hPa 0,0 l/m 0,0 km/h (0 Bft) N-NW 340 0 min 0,000 mm 0 W/m -1,8 C -0,7 C 0,0 km/h (0 Bft) 100 %
03.04.2022 01:10 -0,8 C -0,8 C -0,7 C 92 % 1017,7 hPa 0,0 l/m 0,0 km/h (0 Bft) N-NW 340 0 min 0,000 mm 0 W/m -1,9 C -0,8 C 0,0 km/h (0 Bft) 100 %
03.04.2022 01:20 -0,9 C -0,9 C -0,8 C 92 % 1017,6 hPa 0,0 l/m 0,0 km/h (0 Bft) N-NW 340 0 min 0,000 mm 0 W/m -2,0 C -0,9 C 0,0 km/h (0 Bft) 100 %
03.04.2022 01:30 -0,9 C -0,9 C -0,9 C 92 % 1017,7 hPa 0,0 l/m 0,0 km/h (0 Bft) N-NW 340 0 min 0,000 mm 0 W/m -2,0 C -0,9 C 0,0 km/h (0 Bft) 100 %
03.04.2022 01:40 -1,1 C -1,1 C -0,9 C 92 % 1017,7 hPa 0,0 l/m 0,0 km/h (0 Bft) N-NW 340 0 min 0,000 mm 0 W/m -2,2 C -1,1 C 0,0 km/h (0 Bft) 100 %
03.04.2022 01:50 -1,2 C -1,2 C -1,0 C 92 % 1017,7 hPa 0,0 l/m 0,0 km/h (0 Bft) N-NW 340 0 min 0,000 mm 0 W/m -2,3 C -1,2 C 0,0 km/h (0 Bft) 100 %
03.04.2022 02:00 -1,2 C -1,3 C -1,2 C 92 % 1017,7 hPa 0,0 l/m 0,0 km/h (0 Bft) N-NW 340 0 min 0,000 mm 0 W/m -2,3 C -1,2 C 0,0 km/h (0 Bft) 99 %
03.04.2022 02:10 -1,3 C -1,3 C -1,2 C 92 % 1017,8 hPa 0,0 l/m 0,0 km/h (0 Bft) N-NW 340 0 min 0,000 mm 0 W/m -2,4 C -1,3 C 0,0 km/h (0 Bft) 100 %
03.04.2022 02:20 -1,5 C -1,5 C -1,3 C 92 % 1017,8 hPa 0,0 l/m 0,0 km/h (0 Bft) N-NW 340 0 min 0,000 mm 0 W/m -2,6 C -1,5 C 0,0 km/h (0 Bft) 100 %
03.04.2022 02:30 -1,7 C -1,7 C -1,5 C 92 % 1017,8 hPa 0,0 l/m 0,0 km/h (0 Bft) N-NW 340 0 min 0,000 mm 0 W/m -2,8 C -1,7 C 0,0 km/h (0 Bft) 100 %
03.04.2022 02:40 -1,7 C -1,7 C -1,6 C 92 % 1017,8 hPa 0,0 l/m 0,0 km/h (0 Bft) N-NW 343 0 min 0,000 mm 0 W/m -2,8 C -1,7 C 3,2 km/h (1 Bft) 100 %
03.04.2022 02:50 -1,6 C -1,7 C -1,6 C 92 % 1017,8 hPa 0,0 l/m 0,0 km/h (0 Bft) N-NW 343 0 min 0,000 mm 0 W/m -2,7 C -1,6 C 0,0 km/h (0 Bft) 91 %
03.04.2022 03:00 -1,7 C -1,7 C -1,6 C 92 % 1018,0 hPa 0,0 l/m 0,0 km/h (0 Bft) N-NW 343 0 min 0,000 mm 0 W/m -2,8 C -1,7 C 0,0 km/h (0 Bft) 100 %
03.04.2022 03:10 -1,7 C -1,7 C -1,6 C 92 % 1018,0 hPa 0,0 l/m 0,0 km/h (0 Bft) N-NW 343 0 min 0,000 mm 0 W/m -2,8 C -1,7 C 0,0 km/h (0 Bft) 100 %
03.04.2022 03:20 -1,7 C -1,7 C -1,7 C 92 % 1018,1 hPa 0,0 l/m 0,0 km/h (0 Bft) N-NW 343 0 min 0,000 mm 0 W/m -2,8 C -1,7 C 0,0 km/h (0 Bft) 100 %
03.04.2022 03:30 -1,7 C -1,7 C -1,7 C 92 % 1018,1 hPa 0,0 l/m 0,0 km/h (0 Bft) N-NW 343 0 min 0,000 mm 0 W/m -2,8 C -1,7 C 0,0 km/h (0 Bft) 100 %
03.04.2022 03:40 -1,7 C -1,7 C -1,7 C 92 % 1018,0 hPa 0,0 l/m 0,0 km/h (0 Bft) N-NW 343 0 min 0,000 mm 0 W/m -2,8 C -1,7 C 0,0 km/h (0 Bft) 100 %
03.04.2022 03:50 -1,6 C -1,7 C -1,6 C 92 % 1018,1 hPa 0,0 l/m 0,0 km/h (0 Bft) N-NW 343 0 min 0,000 mm 0 W/m -2,7 C -1,6 C 0,0 km/h (0 Bft) 100 %
03.04.2022 04:00 -1,4 C -1,6 C -1,4 C 92 % 1018,1 hPa 0,0 l/m 0,0 km/h (0 Bft) N-NW 343 0 min 0,000 mm 0 W/m -2,5 C -1,4 C 0,0 km/h (0 Bft) 100 %
03.04.2022 04:10 -1,4 C -1,4 C -1,4 C 92 % 1018,2 hPa 0,0 l/m 0,0 km/h (0 Bft) N-NW 343 0 min 0,000 mm 0 W/m -2,5 C -1,4 C 0,0 km/h (0 Bft) 100 %
03.04.2022 04:20 -1,4 C -1,4 C -1,4 C 92 % 1018,3 hPa 0,0 l/m 0,0 km/h (0 Bft) N-NW 343 0 min 0,000 mm 0 W/m -2,5 C -1,4 C 0,0 km/h (0 Bft) 100 %
03.04.2022 04:30 -1,4 C -1,4 C -1,4 C 92 % 1018,3 hPa 0,0 l/m 0,0 km/h (0 Bft) N-NW 343 0 min 0,000 mm 0 W/m -2,5 C -1,4 C 0,0 km/h (0 Bft) 100 %
03.04.2022 04:40 -1,3 C -1,4 C -1,3 C 92 % 1018,4 hPa 0,0 l/m 0,0 km/h (0 Bft) N-NW 343 0 min 0,000 mm 0 W/m -2,4 C -1,3 C 0,0 km/h (0 Bft) 99 %
03.04.2022 04:50 -1,3 C -1,3 C -1,3 C 92 % 1018,4 hPa 0,0 l/m 0,1 km/h (0 Bft) N-NW 343 0 min 0,000 mm 0 W/m -2,4 C -1,3 C 3,2 km/h (1 Bft) 100 %
03.04.2022 05:00 -1,3 C -1,3 C -1,3 C 92 % 1018,4 hPa 0,0 l/m 0,0 km/h (0 Bft) N-NW 343 0 min 0,000 mm 0 W/m -2,4 C -1,3 C 0,0 km/h (0 Bft) 100 %
03.04.2022 05:10 -1,3 C -1,3 C -1,3 C 92 % 1018,4 hPa 0,0 l/m 0,0 km/h (0 Bft) N-NW 343 0 min 0,000 mm 0 W/m -2,4 C -1,3 C 0,0 km/h (0 Bft) 100 %
03.04.2022 05:20 -1,4 C -1,4 C -1,3 C 92 % 1018,5 hPa 0,0 l/m 0,0 km/h (0 Bft) N-NW 343 0 min 0,000 mm 0 W/m -2,5 C -1,4 C 0,0 km/h (0 Bft) 100 %
03.04.2022 05:30 -1,4 C -1,4 C -1,4 C 92 % 1018,5 hPa 0,0 l/m 0,0 km/h (0 Bft) N-NW 343 0 min 0,000 mm 0 W/m -2,5 C -1,4 C 0,0 km/h (0 Bft) 100 %
03.04.2022 05:40 -1,4 C -1,4 C -1,4 C 92 % 1018,6 hPa 0,0 l/m 0,0 km/h (0 Bft) N-NW 343 0 min 0,000 mm 0 W/m -2,5 C -1,4 C 0,0 km/h (0 Bft) 91 %
03.04.2022 05:50 -1,4 C -1,4 C -1,4 C 92 % 1018,6 hPa 0,0 l/m 0,0 km/h (0 Bft) N-NW 343 0 min 0,000 mm 0 W/m -2,5 C -1,4 C 0,0 km/h (0 Bft) 100 %
03.04.2022 06:00 -1,3 C -1,4 C -1,3 C 92 % 1018,6 hPa 0,0 l/m 0,0 km/h (0 Bft) N-NW 343 0 min 0,000 mm 0 W/m -2,4 C -1,3 C 0,0 km/h (0 Bft) 100 %
03.04.2022 06:10 -1,3 C -1,3 C -1,3 C 92 % 1018,7 hPa 0,0 l/m 0,0 km/h (0 Bft) N-NW 343 0 min 0,000 mm 0 W/m -2,4 C -1,3 C 0,0 km/h (0 Bft) 100 %
03.04.2022 06:20 -1,2 C -1,3 C -1,2 C 92 % 1018,7 hPa 0,0 l/m 0,0 km/h (0 Bft) N-NW 344 0 min 0,000 mm 0 W/m -2,3 C -1,2 C 0,0 km/h (0 Bft) 99 %
03.04.2022 06:30 -1,2 C -1,2 C -1,2 C 92 % 1018,7 hPa 0,0 l/m 0,0 km/h (0 Bft) N-NW 344 0 min 0,000 mm 0 W/m -2,3 C -1,2 C 0,0 km/h (0 Bft) 100 %
03.04.2022 06:40 -1,2 C -1,3 C -1,2 C 91 % 1018,9 hPa 0,0 l/m 0,0 km/h (0 Bft) N-NW 344 0 min 0,000 mm 0 W/m -2,5 C -1,2 C 0,0 km/h (0 Bft) 100 %
03.04.2022 06:50 -1,3 C -1,3 C -1,2 C 91 % 1019,0 hPa 0,0 l/m 0,0 km/h (0 Bft) N-NW 344 0 min 0,000 mm 0 W/m -2,6 C -1,3 C 0,0 km/h (0 Bft) 100 %
03.04.2022 07:00 -1,4 C -1,4 C -1,3 C 91 % 1019,1 hPa 0,0 l/m 0,0 km/h (0 Bft) N-NW 344 0 min 0,000 mm 0 W/m -2,7 C -1,4 C 0,0 km/h (0 Bft) 100 %
03.04.2022 07:10 -1,6 C -1,6 C -1,4 C 91 % 1019,2 hPa 0,0 l/m 0,0 km/h (0 Bft) N-NW 344 0 min 0,000 mm 7 W/m -2,9 C -1,6 C 0,0 km/h (0 Bft) 100 %
03.04.2022 07:20 -1,7 C -1,7 C -1,6 C 91 % 1019,2 hPa 0,0 l/m 0,0 km/h (0 Bft) N-NW 344 0 min 0,000 mm 14 W/m -3,0 C -1,7 C 0,0 km/h (0 Bft) 100 %
03.04.2022 07:30 -1,7 C -1,7 C -1,7 C 91 % 1019,3 hPa 0,0 l/m 0,0 km/h (0 Bft) N-NW 344 0 min 0,000 mm 19 W/m -3,0 C -1,7 C 0,0 km/h (0 Bft) 100 %
03.04.2022 07:40 -1,7 C -1,7 C -1,7 C 92 % 1019,5 hPa 0,0 l/m 0,0 km/h (0 Bft) N-NW 344 0 min 0,000 mm 26 W/m -2,8 C -1,7 C 0,0 km/h (0 Bft) 100 %
03.04.2022 07:50 -1,7 C -1,7 C -1,7 C 92 % 1019,6 hPa 0,0 l/m 0,0 km/h (0 Bft) N-NW 344 0 min 0,000 mm 33 W/m -2,8 C -1,7 C 0,0 km/h (0 Bft) 100 %
03.04.2022 08:00 -1,6 C -1,7 C -1,6 C 92 % 1019,6 hPa 0,0 l/m 0,0 km/h (0 Bft) N-NW 344 0 min 0,000 mm 39 W/m -2,7 C -1,6 C 0,0 km/h (0 Bft) 100 %
03.04.2022 08:10 -1,5 C -1,6 C -1,5 C 92 % 1019,7 hPa 0,0 l/m 0,0 km/h (0 Bft) N-NW 344 0 min 0,000 mm 44 W/m -2,6 C -1,5 C 0,0 km/h (0 Bft) 100 %
03.04.2022 08:20 -1,4 C -1,5 C -1,4 C 92 % 1019,8 hPa 0,0 l/m 0,0 km/h (0 Bft) N-NW 344 0 min 0,000 mm 58 W/m -2,5 C -1,4 C 0,0 km/h (0 Bft) 100 %
03.04.2022 08:30 -1,2 C -1,4 C -1,2 C 91 % 1019,8 hPa 0,0 l/m 0,0 km/h (0 Bft) N-NW 344 0 min 0,000 mm 86 W/m -2,5 C -1,2 C 0,0 km/h (0 Bft) 100 %
03.04.2022 08:40 -0,9 C -1,2 C -0,9 C 91 % 1019,9 hPa 0,0 l/m 0,0 km/h (0 Bft) N-NW 344 0 min 0,000 mm 151 W/m -2,2 C -0,9 C 0,0 km/h (0 Bft) 98 %
03.04.2022 08:50 -0,3 C -0,9 C -0,3 C 91 % 1020,0 hPa 0,0 l/m 0,0 km/h (0 Bft) N-NW 344 10 min 0,000 mm 236 W/m -1,6 C -0,3 C 0,0 km/h (0 Bft) 99 %
03.04.2022 09:00 0,3 C -0,3 C 0,3 C 90 % 1020,2 hPa 0,0 l/m 0,0 km/h (0 Bft) N-NW 344 10 min 0,051 mm 253 W/m -1,1 C 0,3 C 0,0 km/h (0 Bft) 100 %
03.04.2022 09:10 0,7 C 0,3 C 0,7 C 88 % 1020,3 hPa 0,0 l/m 0,5 km/h (0 Bft) N 355 10 min 0,000 mm 292 W/m -1,1 C 0,7 C 8,0 km/h (2 Bft) 100 %
03.04.2022 09:20 1,2 C 0,7 C 1,2 C 87 % 1020,4 hPa 0,0 l/m 0,1 km/h (0 Bft) N 351 10 min 0,000 mm 323 W/m -0,7 C 1,2 C 3,2 km/h (1 Bft) 100 %
03.04.2022 09:30 1,4 C 1,2 C 1,4 C 85 % 1020,4 hPa 0,0 l/m 0,0 km/h (0 Bft) N 355 10 min 0,000 mm 346 W/m -0,8 C 1,4 C 0,0 km/h (0 Bft) 100 %
03.04.2022 09:40 1,5 C 1,4 C 1,5 C 83 % 1020,5 hPa 0,0 l/m 0,4 km/h (0 Bft) N 5 10 min 0,000 mm 345 W/m -1,1 C 1,5 C 4,8 km/h (1 Bft) 100 %
03.04.2022 09:50 1,3 C 1,3 C 1,5 C 82 % 1020,6 hPa 0,0 l/m 1,4 km/h (1 Bft) N-NO 15 10 min 0,000 mm 381 W/m -1,4 C 1,3 C 6,4 km/h (2 Bft) 100 %
03.04.2022 10:00 1,4 C 1,3 C 1,4 C 80 % 1020,6 hPa 0,0 l/m 0,0 km/h (0 Bft) N-NO 21 10 min 0,127 mm 401 W/m -1,7 C 1,4 C 1,6 km/h (1 Bft) 100 %
03.04.2022 10:10 1,7 C 1,4 C 1,7 C 79 % 1020,8 hPa 0,0 l/m 0,0 km/h (0 Bft) N-NO 20 10 min 0,000 mm 438 W/m -1,5 C 1,7 C 0,0 km/h (0 Bft) 100 %
03.04.2022 10:20 1,8 C 1,7 C 1,8 C 79 % 1020,9 hPa 0,0 l/m 0,1 km/h (0 Bft) N-NO 22 10 min 0,000 mm 492 W/m -1,4 C 1,8 C 3,2 km/h (1 Bft) 100 %
03.04.2022 10:30 2,3 C 1,8 C 2,3 C 77 % 1020,9 hPa 0,0 l/m 0,5 km/h (0 Bft) N-NO 24 10 min 0,000 mm 571 W/m -1,3 C 2,3 C 8,0 km/h (2 Bft) 100 %
03.04.2022 10:40 3,0 C 2,3 C 3,0 C 76 % 1021,1 hPa 0,0 l/m 0,3 km/h (0 Bft) N 355 10 min 0,000 mm 643 W/m -0,8 C 3,0 C 6,4 km/h (2 Bft) 100 %
03.04.2022 10:50 3,0 C 2,9 C 3,1 C 75 % 1021,2 hPa 0,0 l/m 0,8 km/h (0 Bft) O-NO 71 10 min 0,000 mm 645 W/m -1,0 C 3,0 C 8,0 km/h (2 Bft) 100 %
03.04.2022 11:00 3,1 C 3,0 C 3,3 C 71 % 1021,1 hPa 0,0 l/m 0,8 km/h (0 Bft) NO 47 10 min 0,178 mm 294 W/m -1,6 C 3,1 C 6,4 km/h (2 Bft) 100 %
03.04.2022 11:10 2,9 C 2,9 C 3,1 C 72 % 1021,1 hPa 0,0 l/m 0,4 km/h (0 Bft) N-NO 26 10 min 0,000 mm 262 W/m -1,6 C 2,9 C 4,8 km/h (1 Bft) 100 %
03.04.2022 11:20 3,2 C 2,9 C 3,2 C 71 % 1021,2 hPa 0,0 l/m 0,7 km/h (0 Bft) NO 42 10 min 0,000 mm 789 W/m -1,5 C 3,2 C 8,0 km/h (2 Bft) 100 %
03.04.2022 11:30 3,2 C 3,2 C 3,2 C 67 % 1021,1 hPa 0,0 l/m 1,0 km/h (0 Bft) O 92 10 min 0,000 mm 373 W/m -2,3 C 3,2 C 8,0 km/h (2 Bft) 100 %
03.04.2022 11:40 3,1 C 3,1 C 3,3 C 68 % 1021,2 hPa 0,0 l/m 0,9 km/h (0 Bft) O-NO 59 10 min 0,000 mm 197 W/m -2,2 C 3,1 C 8,0 km/h (2 Bft) 100 %
03.04.2022 11:50 2,7 C 2,7 C 3,1 C 70 % 1021,2 hPa 0,0 l/m 0,4 km/h (0 Bft) N 5 10 min 0,000 mm 271 W/m -2,2 C 2,7 C 9,7 km/h (2 Bft) 100 %
03.04.2022 12:00 2,7 C 2,7 C 2,8 C 70 % 1021,3 hPa 0,0 l/m 0,3 km/h (0 Bft) NO 37 10 min 0,177 mm 200 W/m -2,2 C 2,7 C 6,4 km/h (2 Bft) 100 %
03.04.2022 12:10 2,4 C 2,4 C 2,7 C 70 % 1021,3 hPa 0,0 l/m 0,1 km/h (0 Bft) N-NO 32 10 min 0,000 mm 204 W/m -2,5 C 2,4 C 3,2 km/h (1 Bft) 100 %
03.04.2022 12:20 2,3 C 2,3 C 2,4 C 69 % 1021,2 hPa 0,0 l/m 0,2 km/h (0 Bft) O-SO 104 10 min 0,000 mm 276 W/m -2,8 C 2,3 C 4,8 km/h (1 Bft) 100 %
03.04.2022 12:30 2,7 C 2,3 C 2,7 C 68 % 1021,1 hPa 0,0 l/m 0,2 km/h (0 Bft) O-NO 70 10 min 0,000 mm 420 W/m -2,6 C 2,7 C 4,8 km/h (1 Bft) 100 %
03.04.2022 12:40 3,1 C 2,7 C 3,1 C 68 % 1021,1 hPa 0,0 l/m 1,1 km/h (1 Bft) N-NW 347 10 min 0,000 mm 202 W/m -2,2 C 3,1 C 8,0 km/h (2 Bft) 100 %
03.04.2022 12:50 3,4 C 3,1 C 3,4 C 68 % 1021,1 hPa 0,0 l/m 0,4 km/h (0 Bft) N 351 10 min 0,000 mm 896 W/m -1,9 C 3,4 C 6,4 km/h (2 Bft) 100 %
03.04.2022 13:00 4,3 C 3,4 C 4,3 C 64 % 1021,1 hPa 0,0 l/m 4,7 km/h (1 Bft) N-NW 340 10 min 0,153 mm 227 W/m -1,9 C 4,3 C 22,5 km/h (4 Bft) 100 %
03.04.2022 13:10 3,8 C 3,8 C 4,3 C 66 % 1021,1 hPa 0,0 l/m 7,3 km/h (2 Bft) N-NW 348 10 min 0,000 mm 223 W/m -2,0 C 3,0 C 24,1 km/h (4 Bft) 99 %
03.04.2022 13:20 3,3 C 3,3 C 3,8 C 67 % 1021,2 hPa 0,0 l/m 2,9 km/h (1 Bft) N 355 10 min 0,000 mm 330 W/m -2,2 C 3,3 C 9,7 km/h (2 Bft) 99 %
03.04.2022 13:30 3,2 C 3,2 C 3,3 C 66 % 1021,1 hPa 0,0 l/m 2,7 km/h (1 Bft) N 360 10 min 0,000 mm 325 W/m -2,5 C 3,2 C 9,7 km/h (2 Bft) 99 %
03.04.2022 13:40 3,4 C 3,1 C 3,4 C 64 % 1021,0 hPa 0,0 l/m 2,3 km/h (1 Bft) N-NO 21 10 min 0,000 mm 780 W/m -2,7 C 3,4 C 14,5 km/h (3 Bft) 100 %
03.04.2022 13:50 3,7 C 3,3 C 3,7 C 65 % 1020,9 hPa 0,0 l/m 1,8 km/h (1 Bft) N 355 10 min 0,000 mm 779 W/m -2,3 C 3,7 C 11,3 km/h (2 Bft) 100 %
03.04.2022 14:00 4,6 C 3,7 C 4,6 C 62 % 1020,7 hPa 0,0 l/m 2,9 km/h (1 Bft) NO 38 10 min 0,203 mm 722 W/m -2,0 C 4,6 C 8,0 km/h (2 Bft) 100 %
03.04.2022 14:10 4,4 C 4,4 C 4,6 C 58 % 1020,6 hPa 0,0 l/m 2,3 km/h (1 Bft) N 355 10 min 0,000 mm 343 W/m -3,1 C 4,4 C 11,3 km/h (2 Bft) 99 %
03.04.2022 14:20 4,2 C 4,2 C 4,4 C 61 % 1020,6 hPa 0,0 l/m 0,9 km/h (0 Bft) O-NO 67 10 min 0,000 mm 875 W/m -2,6 C 4,2 C 8,0 km/h (2 Bft) 100 %
03.04.2022 14:30 4,2 C 4,2 C 4,4 C 57 % 1020,6 hPa 0,0 l/m 2,7 km/h (1 Bft) N-NO 32 10 min 0,000 mm 237 W/m -3,5 C 4,2 C 8,0 km/h (2 Bft) 100 %
03.04.2022 14:40 3,9 C 3,8 C 4,2 C 57 % 1020,5 hPa 0,0 l/m 1,9 km/h (1 Bft) N-NW 328 10 min 0,000 mm 670 W/m -3,8 C 3,9 C 9,7 km/h (2 Bft) 100 %
03.04.2022 14:50 4,4 C 3,9 C 4,4 C 59 % 1020,6 hPa 0,0 l/m 5,0 km/h (1 Bft) N-NW 333 10 min 0,000 mm 167 W/m -2,9 C 4,4 C 14,5 km/h (3 Bft) 100 %
03.04.2022 15:00 4,7 C 4,3 C 4,7 C 53 % 1020,5 hPa 0,0 l/m 4,2 km/h (1 Bft) N-NW 345 10 min 0,203 mm 875 W/m -4,0 C 4,7 C 14,5 km/h (3 Bft) 99 %
03.04.2022 15:10 5,4 C 4,7 C 5,4 C 53 % 1020,5 hPa 0,0 l/m 2,2 km/h (1 Bft) W-NW 297 10 min 0,000 mm 459 W/m -3,4 C 5,4 C 8,0 km/h (2 Bft) 100 %
03.04.2022 15:20 5,2 C 5,2 C 5,4 C 56 % 1020,4 hPa 0,0 l/m 6,4 km/h (2 Bft) NW 324 10 min 0,000 mm 260 W/m -2,8 C 5,2 C 19,3 km/h (3 Bft) 100 %
03.04.2022 15:30 4,9 C 4,9 C 5,2 C 55 % 1020,5 hPa 0,0 l/m 8,6 km/h (2 Bft) N-NW 333 10 min 0,000 mm 332 W/m -3,4 C 3,0 C 19,3 km/h (3 Bft) 100 %
03.04.2022 15:40 4,8 C 4,8 C 4,9 C 56 % 1020,4 hPa 0,0 l/m 7,9 km/h (2 Bft) N-NW 333 10 min 0,000 mm 522 W/m -3,2 C 3,5 C 17,7 km/h (3 Bft) 100 %
03.04.2022 15:50 5,2 C 4,8 C 5,2 C 55 % 1020,3 hPa 0,0 l/m 3,3 km/h (1 Bft) N-NW 336 10 min 0,000 mm 281 W/m -3,1 C 5,2 C 14,5 km/h (3 Bft) 100 %
03.04.2022 16:00 4,9 C 4,9 C 5,2 C 52 % 1020,2 hPa 0,0 l/m 1,1 km/h (1 Bft) N 5 10 min 0,203 mm 682 W/m -4,1 C 4,9 C 6,4 km/h (2 Bft) 100 %
03.04.2022 16:10 4,5 C 4,5 C 4,9 C 52 % 1020,2 hPa 0,0 l/m 0,0 km/h (0 Bft) N 10 10 min 0,000 mm 178 W/m -4,5 C 4,5 C 1,6 km/h (1 Bft) 100 %
03.04.2022 16:20 4,8 C 4,4 C 4,8 C 52 % 1020,1 hPa 0,0 l/m 0,4 km/h (0 Bft) N-NW 343 10 min 0,000 mm 615 W/m -4,2 C 4,8 C 6,4 km/h (2 Bft) 100 %
03.04.2022 16:30 5,8 C 4,8 C 5,8 C 47 % 1020,0 hPa 0,0 l/m 4,2 km/h (1 Bft) W-NW 299 10 min 0,000 mm 721 W/m -4,6 C 5,8 C 12,9 km/h (3 Bft) 100 %
03.04.2022 16:40 6,2 C 5,8 C 6,2 C 48 % 1019,9 hPa 0,0 l/m 4,0 km/h (1 Bft) W-NW 296 10 min 0,000 mm 656 W/m -4,0 C 6,2 C 14,5 km/h (3 Bft) 100 %
03.04.2022 16:50 6,7 C 6,2 C 6,7 C 51 % 1019,9 hPa 0,0 l/m 4,2 km/h (1 Bft) N-NW 337 10 min 0,000 mm 592 W/m -2,7 C 6,7 C 16,1 km/h (3 Bft) 100 %
03.04.2022 17:00 7,1 C 6,7 C 7,1 C 49 % 1020,0 hPa 0,0 l/m 2,5 km/h (1 Bft) N-NW 338 10 min 0,229 mm 540 W/m -2,9 C 7,1 C 16,1 km/h (3 Bft) 100 %
03.04.2022 17:10 5,7 C 5,7 C 7,1 C 49 % 1020,0 hPa 0,0 l/m 0,1 km/h (0 Bft) N 355 0 min 0,000 mm 100 W/m -4,2 C 5,7 C 3,2 km/h (1 Bft) 100 %
03.04.2022 17:20 4,9 C 4,9 C 5,7 C 54 % 1020,0 hPa 0,0 l/m 0,0 km/h (0 Bft) N-NW 343 0 min 0,000 mm 121 W/m -3,6 C 4,9 C 1,6 km/h (1 Bft) 100 %
03.04.2022 17:30 5,1 C 4,8 C 5,1 C 50 % 1019,9 hPa 0,0 l/m 0,5 km/h (0 Bft) NW 307 10 min 0,000 mm 457 W/m -4,4 C 5,1 C 6,4 km/h (2 Bft) 100 %
03.04.2022 17:40 5,8 C 5,1 C 5,8 C 51 % 1020,0 hPa 0,0 l/m 4,4 km/h (1 Bft) NW 321 10 min 0,000 mm 410 W/m -3,5 C 5,8 C 17,7 km/h (3 Bft) 99 %
03.04.2022 17:50 5,7 C 5,7 C 6,0 C 51 % 1020,0 hPa 0,0 l/m 2,2 km/h (1 Bft) N-NW 348 0 min 0,000 mm 121 W/m -3,6 C 5,7 C 16,1 km/h (3 Bft) 100 %
03.04.2022 18:00 4,9 C 4,9 C 5,7 C 51 % 1020,1 hPa 0,0 l/m 0,3 km/h (0 Bft) N-NO 19 0 min 0,102 mm 113 W/m -4,4 C 4,9 C 8,0 km/h (2 Bft) 100 %
03.04.2022 18:10 4,6 C 4,5 C 4,9 C 56 % 1020,1 hPa 0,0 l/m 0,5 km/h (0 Bft) N-NW 343 10 min 0,000 mm 278 W/m -3,4 C 4,6 C 8,0 km/h (2 Bft) 100 %
03.04.2022 18:20 4,5 C 4,5 C 4,6 C 54 % 1020,2 hPa 0,0 l/m 0,6 km/h (0 Bft) N 355 0 min 0,000 mm 111 W/m -4,0 C 4,5 C 8,0 km/h (2 Bft) 98 %
03.04.2022 18:30 4,3 C 4,3 C 4,5 C 55 % 1020,3 hPa 0,0 l/m 2,3 km/h (1 Bft) N-NW 346 0 min 0,000 mm 47 W/m -3,9 C 4,3 C 14,5 km/h (3 Bft) 98 %
03.04.2022 18:40 4,1 C 4,1 C 4,3 C 55 % 1020,4 hPa 0,0 l/m 3,1 km/h (1 Bft) N-NW 342 0 min 0,000 mm 56 W/m -4,1 C 4,1 C 14,5 km/h (3 Bft) 97 %
03.04.2022 18:50 3,9 C 3,9 C 4,1 C 56 % 1020,4 hPa 0,0 l/m 0,3 km/h (0 Bft) N-NW 346 0 min 0,000 mm 51 W/m -4,1 C 3,9 C 6,4 km/h (2 Bft) 97 %
03.04.2022 19:00 3,8 C 3,8 C 3,9 C 55 % 1020,3 hPa 0,0 l/m 0,0 km/h (0 Bft) N-NW 346 0 min 0,050 mm 37 W/m -4,4 C 3,8 C 1,6 km/h (1 Bft) 98 %
03.04.2022 19:10 3,6 C 3,5 C 3,8 C 57 % 1020,3 hPa 0,0 l/m 0,0 km/h (0 Bft) N-NW 348 0 min 0,000 mm 35 W/m -4,1 C 3,6 C 1,6 km/h (1 Bft) 97 %
03.04.2022 19:20 3,3 C 3,3 C 3,6 C 58 % 1020,3 hPa 0,0 l/m 0,0 km/h (0 Bft) N 350 0 min 0,000 mm 30 W/m -4,2 C 3,3 C 0,0 km/h (0 Bft) 98 %
03.04.2022 19:30 3,1 C 3,1 C 3,3 C 59 % 1020,3 hPa 0,0 l/m 0,0 km/h (0 Bft) N 350 0 min 0,000 mm 25 W/m -4,1 C 3,1 C 0,0 km/h (0 Bft) 97 %
03.04.2022 19:40 2,7 C 2,7 C 3,1 C 61 % 1020,2 hPa 0,0 l/m 0,0 km/h (0 Bft) N 350 0 min 0,000 mm 12 W/m -4,1 C 2,7 C 0,0 km/h (0 Bft) 97 %
03.04.2022 19:50 2,3 C 2,3 C 2,7 C 62 % 1020,3 hPa 0,0 l/m 0,0 km/h (0 Bft) N 351 0 min 0,000 mm 7 W/m -4,2 C 2,3 C 0,0 km/h (0 Bft) 97 %
03.04.2022 20:00 2,0 C 2,0 C 2,3 C 61 % 1020,4 hPa 0,0 l/m 0,0 km/h (0 Bft) N 351 0 min 0,026 mm 0 W/m -4,7 C 2,0 C 0,0 km/h (0 Bft) 96 %
03.04.2022 20:10 1,7 C 1,7 C 2,0 C 65 % 1020,6 hPa 0,0 l/m 0,0 km/h (0 Bft) N 351 0 min 0,000 mm 0 W/m -4,2 C 1,7 C 0,0 km/h (0 Bft) 98 %
03.04.2022 20:20 1,3 C 1,3 C 1,7 C 67 % 1020,6 hPa 0,0 l/m 0,0 km/h (0 Bft) N 351 0 min 0,000 mm 0 W/m -4,1 C 1,3 C 0,0 km/h (0 Bft) 97 %
03.04.2022 20:30 1,0 C 1,0 C 1,3 C 67 % 1020,6 hPa 0,0 l/m 0,0 km/h (0 Bft) N 351 0 min 0,000 mm 0 W/m -4,4 C 1,0 C 0,0 km/h (0 Bft) 98 %
03.04.2022 20:40 0,8 C 0,8 C 1,0 C 67 % 1020,7 hPa 0,0 l/m 0,0 km/h (0 Bft) N 351 0 min 0,000 mm 0 W/m -4,6 C 0,8 C 0,0 km/h (0 Bft) 97 %
03.04.2022 20:50 0,6 C 0,6 C 0,8 C 68 % 1020,7 hPa 0,0 l/m 0,0 km/h (0 Bft) N 351 0 min 0,000 mm 0 W/m -4,6 C 0,6 C 0,0 km/h (0 Bft) 98 %
03.04.2022 21:00 0,4 C 0,4 C 0,6 C 66 % 1020,7 hPa 0,0 l/m 0,0 km/h (0 Bft) N 351 0 min 0,000 mm 0 W/m -5,2 C 0,4 C 0,0 km/h (0 Bft) 97 %
03.04.2022 21:10 0,4 C 0,4 C 0,4 C 66 % 1020,6 hPa 0,0 l/m 0,0 km/h (0 Bft) N 0 0 min 0,000 mm 0 W/m -5,2 C 0,4 C 0,0 km/h (0 Bft) 94 %
03.04.2022 21:20 0,3 C 0,3 C 0,5 C 66 % 1020,7 hPa 0,0 l/m 0,0 km/h (0 Bft) N 0 0 min 0,000 mm 0 W/m -5,3 C 0,3 C 0,0 km/h (0 Bft) 97 %
03.04.2022 21:30 0,6 C 0,3 C 0,6 C 66 % 1020,8 hPa 0,0 l/m 0,0 km/h (0 Bft) N 0 0 min 0,000 mm 0 W/m -5,0 C 0,6 C 0,0 km/h (0 Bft) 100 %
03.04.2022 21:40 0,7 C 0,6 C 0,7 C 67 % 1020,8 hPa 0,0 l/m 0,0 km/h (0 Bft) N 0 0 min 0,000 mm 0 W/m -4,7 C 0,7 C 0,0 km/h (0 Bft) 100 %
03.04.2022 21:50 0,7 C 0,7 C 0,7 C 66 % 1020,9 hPa 0,0 l/m 0,0 km/h (0 Bft) N 0 0 min 0,000 mm 0 W/m -4,9 C 0,7 C 0,0 km/h (0 Bft) 100 %
03.04.2022 22:00 0,7 C 0,6 C 0,7 C 68 % 1021,0 hPa 0,0 l/m 0,0 km/h (0 Bft) N 0 0 min 0,025 mm 0 W/m -4,5 C 0,7 C 0,0 km/h (0 Bft) 100 %
03.04.2022 22:10 0,7 C 0,7 C 0,7 C 69 % 1021,0 hPa 0,0 l/m 0,0 km/h (0 Bft) N 0 0 min 0,000 mm 0 W/m -4,3 C 0,7 C 0,0 km/h (0 Bft) 100 %
03.04.2022 22:20 0,5 C 0,5 C 0,7 C 71 % 1021,0 hPa 0,0 l/m 0,0 km/h (0 Bft) N 0 0 min 0,000 mm 0 W/m -4,1 C 0,5 C 0,0 km/h (0 Bft) 100 %
03.04.2022 22:30 0,3 C 0,3 C 0,5 C 72 % 1021,1 hPa 0,0 l/m 0,0 km/h (0 Bft) N 0 0 min 0,000 mm 0 W/m -4,1 C 0,3 C 0,0 km/h (0 Bft) 99 %
03.04.2022 22:40 0,1 C 0,1 C 0,3 C 72 % 1021,1 hPa 0,0 l/m 0,0 km/h (0 Bft) N 0 0 min 0,000 mm 0 W/m -4,3 C 0,1 C 0,0 km/h (0 Bft) 100 %
03.04.2022 22:50 -0,2 C -0,2 C 0,1 C 74 % 1021,1 hPa 0,0 l/m 0,0 km/h (0 Bft) N 0 0 min 0,000 mm 0 W/m -4,3 C -0,2 C 0,0 km/h (0 Bft) 100 %
03.04.2022 23:00 -0,6 C -0,6 C -0,2 C 77 % 1021,2 hPa 0,0 l/m 0,0 km/h (0 Bft) N 0 0 min 0,025 mm 0 W/m -4,1 C -0,6 C 0,0 km/h (0 Bft) 99 %
03.04.2022 23:10 -0,7 C -0,7 C -0,6 C 78 % 1021,4 hPa 0,0 l/m 0,0 km/h (0 Bft) N 0 0 min 0,000 mm 0 W/m -4,0 C -0,7 C 0,0 km/h (0 Bft) 100 %
03.04.2022 23:20 -0,7 C -0,8 C -0,7 C 78 % 1021,4 hPa 0,0 l/m 0,0 km/h (0 Bft) N 0 0 min 0,000 mm 0 W/m -4,0 C -0,7 C 0,0 km/h (0 Bft) 100 %
03.04.2022 23:30 -0,8 C -0,8 C -0,7 C 78 % 1021,4 hPa 0,0 l/m 0,0 km/h (0 Bft) N 0 0 min 0,000 mm 0 W/m -4,1 C -0,8 C 0,0 km/h (0 Bft) 100 %
03.04.2022 23:40 -1,1 C -1,1 C -0,8 C 79 % 1021,5 hPa 0,0 l/m 0,0 km/h (0 Bft) N 0 0 min 0,000 mm 0 W/m -4,3 C -1,1 C 0,0 km/h (0 Bft) 88 %
03.04.2022 23:50 -1,3 C -1,3 C -1,1 C 79 % 1021,4 hPa 0,0 l/m 0,0 km/h (0 Bft) N 0 0 min 0,000 mm 0 W/m -4,5 C -1,3 C 0,0 km/h (0 Bft) 100 %
_ Min-Zeit 02:30 02:30 03:20 16:30 00:00 - 00:00 - - - - - 21:20 02:30 00:00 23:40
Minimum _ -1,7 C -1,7 C -1,7 C 47 % 1017,3 hPa - 0,0 km/h (0 Bft) - - - - - -5,3 C -1,7 C 0,0 km/h (0 Bft) 88 %
_ Max-Zeit 17:00 17:00 17:00 00:00 23:40 00:00 15:30 - - 08:50 17:00 12:50 09:20 17:00 13:10 00:00
Maximum _ 7,1 C 6,7 C 7,1 C 92 % 1021,5 hPa 0,0 l/m 8,6 km/h
N-NW (2 Bft)
- - 10 min 0,229 mm 896 W/m -0,7 C 7,1 C 24,1 km/h
N (4 Bft)
100 %
Durchschnitt _ 1,3 C 1,2 C 1,4 C 75 % 1019,8 hPa #0,0 l/m 0,8 km/h (0 Bft) N-NW - #8:50 h #1,752 mm 320 W/m -3,0 C 1,2 C 3,9 km/h (1 Bft) 99 %
PRIVATE WETTERSTATION BILLIGHEIM-ALLFELD - www.neckar-odenwald-wetter.de - Holger Sonntag